createdAt,value
2019-02-17T00:02:00.476Z,16.70
2019-02-17T00:04:30.484Z,16.70
2019-02-17T00:07:00.672Z,16.70
2019-02-17T00:09:30.957Z,16.60
2019-02-17T00:12:01.053Z,16.60
2019-02-17T00:14:31.248Z,16.60
2019-02-17T00:17:01.400Z,16.50
2019-02-17T00:19:31.557Z,16.50
2019-02-17T00:22:03.264Z,16.50
2019-02-17T00:24:33.352Z,16.50
2019-02-17T00:27:03.479Z,16.50
2019-02-17T00:29:33.665Z,16.50
2019-02-17T00:32:03.832Z,16.40
2019-02-17T00:34:33.979Z,16.40
2019-02-17T00:37:04.144Z,16.40
2019-02-17T00:39:34.363Z,16.40
2019-02-17T00:42:04.489Z,16.40
2019-02-17T00:44:34.632Z,16.40
2019-02-17T00:47:05.749Z,16.40
2019-02-17T00:49:38.261Z,16.40
2019-02-17T00:52:08.342Z,16.40
2019-02-17T00:54:38.323Z,16.30
2019-02-17T00:57:08.314Z,16.30
2019-02-17T00:59:38.355Z,16.30
2019-02-17T01:02:08.478Z,16.30
2019-02-17T01:04:38.676Z,16.30
2019-02-17T01:07:09.120Z,16.30
2019-02-17T01:09:39.164Z,16.30
2019-02-17T01:12:09.063Z,16.30
2019-02-17T01:14:39.307Z,16.30
2019-02-17T01:17:09.553Z,16.30
2019-02-17T01:19:39.624Z,16.20
2019-02-17T01:22:09.831Z,16.20
2019-02-17T01:24:40.108Z,16.10
2019-02-17T01:27:10.321Z,16.10
2019-02-17T01:29:40.485Z,16.10
2019-02-17T01:32:10.712Z,16.10
2019-02-17T01:34:40.984Z,16.10
2019-02-17T01:37:11.083Z,16.10
2019-02-17T01:39:42.608Z,16.10
2019-02-17T01:42:12.757Z,16.10
2019-02-17T01:44:42.864Z,16.00
2019-02-17T01:47:12.873Z,16.00
2019-02-17T01:49:43.051Z,15.90
2019-02-17T01:52:13.311Z,16.00
2019-02-17T01:54:43.384Z,16.00
2019-02-17T01:57:13.452Z,16.00
2019-02-17T01:59:43.393Z,16.00
2019-02-17T02:02:13.403Z,16.00
2019-02-17T02:04:43.575Z,16.00
2019-02-17T02:07:13.755Z,16.00
2019-02-17T02:09:43.943Z,16.10
2019-02-17T02:12:14.148Z,16.20
2019-02-17T02:14:44.319Z,16.20
2019-02-17T02:17:14.456Z,16.20
2019-02-17T02:19:45.131Z,16.20
2019-02-17T02:22:15.335Z,16.20
2019-02-17T02:24:45.284Z,16.20
2019-02-17T02:27:15.496Z,16.20
2019-02-17T02:29:45.432Z,16.20
2019-02-17T02:32:15.606Z,16.20
2019-02-17T02:34:45.884Z,16.10
2019-02-17T02:37:15.988Z,16.10
2019-02-17T02:39:46.126Z,16.10
2019-02-17T02:42:16.291Z,16.10
2019-02-17T02:44:48.631Z,16.10
2019-02-17T02:47:18.127Z,16.00
2019-02-17T02:49:48.441Z,16.00
2019-02-17T02:52:18.657Z,16.00
2019-02-17T02:54:48.654Z,16.00
2019-02-17T02:57:18.896Z,15.90
2019-02-17T02:59:52.390Z,15.90
2019-02-17T03:02:22.067Z,15.80
2019-02-17T03:04:52.241Z,15.80
2019-02-17T03:07:22.810Z,15.80
2019-02-17T03:09:52.913Z,15.80
2019-02-17T03:12:23.064Z,15.80
2019-02-17T03:14:53.255Z,15.80
2019-02-17T03:17:23.495Z,15.70
2019-02-17T03:19:53.523Z,15.80
2019-02-17T03:22:24.512Z,15.70
2019-02-17T03:24:54.608Z,15.70
2019-02-17T03:27:24.887Z,15.60
2019-02-17T03:30:04.393Z,15.60
2019-02-17T03:32:26.827Z,15.60
2019-02-17T03:34:57.113Z,15.60
2019-02-17T03:37:27.219Z,15.60
2019-02-17T03:39:57.548Z,15.60
2019-02-17T03:42:27.644Z,15.50
2019-02-17T03:44:57.820Z,15.60
2019-02-17T03:47:27.946Z,15.40
2019-02-17T03:49:58.091Z,15.40
2019-02-17T03:52:28.243Z,15.30
2019-02-17T03:54:58.299Z,15.30
2019-02-17T03:57:28.398Z,15.30
2019-02-17T03:59:58.476Z,15.30
2019-02-17T04:02:28.527Z,15.40
2019-02-17T04:04:58.592Z,15.40
2019-02-17T04:07:28.725Z,15.30
2019-02-17T04:09:58.891Z,15.30
2019-02-17T04:12:28.876Z,15.30
2019-02-17T04:14:58.874Z,15.30
2019-02-17T04:17:28.967Z,15.40
2019-02-17T04:19:59.059Z,15.30
2019-02-17T04:22:29.310Z,15.30
2019-02-17T04:24:59.393Z,15.20
2019-02-17T04:27:29.752Z,15.20
2019-02-17T04:30:00.081Z,15.20
2019-02-17T04:32:31.431Z,15.30
2019-02-17T04:35:01.549Z,15.20
2019-02-17T04:37:31.859Z,15.20
2019-02-17T04:40:02.020Z,15.20
2019-02-17T04:42:33.263Z,15.20
2019-02-17T04:45:03.375Z,15.10
2019-02-17T04:47:34.376Z,15.10
2019-02-17T04:50:04.843Z,15.20
2019-02-17T04:52:34.936Z,15.20
2019-02-17T04:55:05.140Z,15.20
2019-02-17T04:57:35.311Z,15.20
2019-02-17T05:00:06.272Z,15.20
2019-02-17T05:02:36.403Z,15.20
2019-02-17T05:05:06.702Z,15.10
2019-02-17T05:07:36.844Z,15.10
2019-02-17T05:10:07.389Z,15.10
2019-02-17T05:12:37.539Z,15.10
2019-02-17T05:15:08.200Z,15.10
2019-02-17T05:17:38.281Z,15.10
2019-02-17T05:20:08.376Z,15.00
2019-02-17T05:22:39.404Z,15.00
2019-02-17T05:25:09.950Z,15.10
2019-02-17T05:27:40.054Z,15.30
2019-02-17T05:30:10.245Z,15.40
2019-02-17T05:32:40.333Z,15.50
2019-02-17T05:35:10.471Z,15.60
2019-02-17T05:37:40.626Z,15.50
2019-02-17T05:40:10.741Z,15.60
2019-02-17T05:42:40.757Z,15.50
2019-02-17T05:45:10.797Z,15.50
2019-02-17T05:47:40.985Z,15.50
2019-02-17T05:50:11.176Z,15.50
2019-02-17T05:52:41.359Z,15.50
2019-02-17T05:55:11.635Z,15.60
2019-02-17T05:57:41.779Z,15.50
2019-02-17T06:00:13.336Z,15.50
2019-02-17T06:02:43.425Z,15.50
2019-02-17T06:05:13.379Z,15.60
2019-02-17T06:07:43.365Z,15.60
2019-02-17T06:10:13.689Z,15.60
2019-02-17T06:12:43.862Z,15.60
2019-02-17T06:15:14.106Z,15.70
2019-02-17T06:17:44.266Z,15.70
2019-02-17T06:20:14.440Z,15.80
2019-02-17T06:22:44.649Z,15.70
2019-02-17T06:25:14.620Z,15.70
2019-02-17T06:27:44.901Z,15.80
2019-02-17T06:30:16.083Z,15.80
2019-02-17T06:32:46.219Z,15.70
2019-02-17T06:35:16.513Z,15.60
2019-02-17T06:37:46.647Z,15.70
2019-02-17T06:40:16.721Z,15.70
2019-02-17T06:42:46.940Z,15.70
2019-02-17T06:45:19.521Z,15.70
2019-02-17T06:47:48.874Z,15.70
2019-02-17T06:50:19.347Z,15.60
2019-02-17T06:52:50.408Z,15.70
2019-02-17T06:55:37.923Z,15.70
2019-02-17T06:58:07.956Z,15.70
2019-02-17T07:00:43.908Z,15.70
2019-02-17T07:03:14.479Z,15.70
2019-02-17T07:06:06.663Z,15.70
2019-02-17T07:08:36.849Z,15.70
2019-02-17T07:11:07.271Z,15.70
2019-02-17T07:13:37.355Z,15.60
2019-02-17T07:16:07.451Z,15.60
2019-02-17T07:18:37.620Z,15.60
2019-02-17T07:21:07.830Z,15.70
2019-02-17T07:23:37.898Z,15.70
2019-02-17T07:26:08.127Z,15.80
2019-02-17T07:28:38.308Z,15.80
2019-02-17T07:31:08.431Z,15.80
2019-02-17T07:33:38.561Z,15.80
2019-02-17T07:36:08.673Z,15.80
2019-02-17T07:38:38.854Z,15.80
2019-02-17T07:41:08.901Z,15.80
2019-02-17T07:43:39.081Z,15.80
2019-02-17T07:46:09.249Z,15.80
2019-02-17T07:48:39.388Z,15.70
2019-02-17T07:51:09.503Z,15.90
2019-02-17T07:53:39.719Z,16.00
2019-02-17T07:56:09.915Z,16.00
2019-02-17T07:58:40.111Z,16.10
2019-02-17T08:01:10.389Z,15.90
2019-02-17T08:03:40.303Z,15.80
2019-02-17T08:06:10.448Z,15.70
2019-02-17T08:08:40.499Z,15.70
2019-02-17T08:11:10.709Z,15.70
2019-02-17T08:13:41.053Z,15.70
2019-02-17T08:16:11.124Z,15.80
2019-02-17T08:18:41.225Z,15.80
2019-02-17T08:21:11.512Z,16.00
2019-02-17T08:23:41.914Z,16.10
2019-02-17T08:26:12.041Z,16.30
2019-02-17T08:28:42.700Z,16.50
2019-02-17T08:31:13.200Z,16.70
2019-02-17T08:33:43.383Z,16.80
2019-02-17T08:36:13.513Z,17.00
2019-02-17T08:38:43.680Z,17.10
2019-02-17T08:41:13.788Z,17.10
2019-02-17T08:43:44.130Z,17.30
2019-02-17T08:46:14.352Z,17.60
2019-02-17T08:48:44.559Z,17.90
2019-02-17T08:51:14.609Z,18.10
2019-02-17T08:53:44.955Z,18.20
2019-02-17T08:56:15.126Z,18.40
2019-02-17T08:58:45.173Z,18.40
2019-02-17T09:01:15.079Z,18.60
2019-02-17T09:03:45.243Z,18.60
2019-02-17T09:06:15.498Z,18.60
2019-02-17T09:08:45.639Z,18.50
2019-02-17T09:11:16.796Z,18.50
2019-02-17T09:13:47.020Z,18.50
2019-02-17T09:16:17.191Z,18.70
2019-02-17T09:18:47.579Z,18.90
2019-02-17T09:21:17.630Z,18.90
2019-02-17T09:23:47.815Z,19.00
2019-02-17T09:26:18.032Z,19.00
2019-02-17T09:28:48.165Z,19.00
2019-02-17T09:31:18.442Z,19.20
2019-02-17T09:33:52.516Z,19.30
2019-02-17T09:36:22.620Z,19.30
2019-02-17T09:38:52.743Z,19.30
2019-02-17T09:41:22.863Z,19.40
2019-02-17T09:43:53.001Z,19.40
2019-02-17T09:46:23.221Z,19.30
2019-02-17T09:48:53.247Z,19.40
2019-02-17T09:51:23.696Z,19.30
2019-02-17T09:53:53.786Z,19.30
2019-02-17T09:56:23.880Z,19.30
2019-02-17T09:58:54.057Z,19.30
2019-02-17T10:01:24.276Z,18.80
2019-02-17T10:03:54.681Z,18.70
2019-02-17T10:06:24.795Z,18.70
2019-02-17T10:08:54.947Z,18.30
2019-02-17T10:11:25.081Z,18.60
2019-02-17T10:13:55.060Z,18.80
2019-02-17T10:16:25.031Z,18.90
2019-02-17T10:18:55.023Z,19.00
2019-02-17T10:21:25.484Z,19.10
2019-02-17T10:23:55.719Z,19.20
2019-02-17T10:26:25.996Z,19.30
2019-02-17T10:28:56.216Z,19.30
2019-02-17T10:31:26.380Z,19.30
2019-02-17T10:33:56.487Z,19.30
2019-02-17T10:36:26.608Z,19.40
2019-02-17T10:38:58.595Z,19.40
2019-02-17T10:41:28.696Z,19.50
2019-02-17T10:43:58.891Z,19.50
2019-02-17T10:46:29.041Z,19.50
2019-02-17T10:48:59.180Z,19.60
2019-02-17T10:51:30.399Z,19.70
2019-02-17T10:54:00.854Z,19.60
2019-02-17T10:56:32.699Z,19.60
2019-02-17T10:59:02.904Z,19.60
2019-02-17T11:01:33.303Z,19.70
2019-02-17T11:04:11.566Z,19.70
2019-02-17T11:06:42.044Z,19.80
2019-02-17T11:09:23.091Z,19.90
2019-02-17T11:11:53.802Z,19.90
2019-02-17T11:14:24.827Z,19.90
2019-02-17T11:16:55.614Z,19.80
2019-02-17T11:19:26.777Z,19.80
2019-02-17T11:21:57.125Z,19.90
2019-02-17T11:24:27.371Z,19.90
2019-02-17T11:26:57.505Z,19.90
2019-02-17T11:29:27.647Z,19.90
2019-02-17T11:31:57.998Z,19.90
2019-02-17T11:34:29.010Z,19.90
2019-02-17T11:36:59.007Z,19.90
2019-02-17T11:39:29.194Z,19.90
2019-02-17T11:41:59.252Z,19.90
2019-02-17T11:44:31.409Z,19.90
2019-02-17T11:47:01.163Z,19.90
2019-02-17T11:49:31.376Z,19.90
2019-02-17T11:52:01.460Z,19.90
2019-02-17T11:54:31.640Z,19.90
2019-02-17T11:57:01.830Z,19.90
2019-02-17T11:59:32.080Z,20.00
2019-02-17T12:02:02.265Z,20.00
2019-02-17T12:04:32.271Z,19.90
2019-02-17T12:07:02.522Z,19.90
2019-02-17T12:09:32.711Z,19.90
2019-02-17T12:12:02.964Z,19.90
2019-02-17T12:14:34.017Z,20.00
2019-02-17T12:17:04.248Z,19.90
2019-02-17T12:19:35.433Z,20.00
2019-02-17T12:22:20.051Z,19.90
2019-02-17T12:25:05.742Z,20.00
2019-02-17T12:27:47.325Z,20.00
2019-02-17T12:30:22.324Z,20.00
2019-02-17T12:32:52.474Z,20.00
2019-02-17T12:35:22.659Z,20.00
2019-02-17T12:37:52.788Z,20.00
2019-02-17T12:40:23.000Z,20.00
2019-02-17T12:42:53.172Z,20.00
2019-02-17T12:45:23.135Z,20.00
2019-02-17T12:47:58.127Z,20.00
2019-02-17T12:50:25.071Z,20.00
2019-02-17T12:52:55.224Z,20.00
2019-02-17T12:55:25.352Z,19.90
2019-02-17T12:57:55.523Z,20.00
2019-02-17T13:00:25.625Z,19.90
2019-02-17T13:02:55.752Z,20.00
2019-02-17T13:05:25.676Z,20.00
2019-02-17T13:07:55.829Z,20.00
2019-02-17T13:10:26.021Z,20.10
2019-02-17T13:12:56.260Z,20.10
2019-02-17T13:15:26.338Z,20.10
2019-02-17T13:17:56.230Z,20.10
2019-02-17T13:20:26.446Z,20.20
2019-02-17T13:22:56.480Z,20.20
2019-02-17T13:25:26.572Z,20.20
2019-02-17T13:27:56.640Z,20.20
2019-02-17T13:30:26.996Z,20.30
2019-02-17T13:32:57.238Z,20.30
2019-02-17T13:35:29.183Z,20.20
2019-02-17T13:37:59.378Z,20.20
2019-02-17T13:40:29.374Z,20.10
2019-02-17T13:42:59.543Z,20.20
2019-02-17T13:45:29.829Z,20.10
2019-02-17T13:48:00.083Z,20.10
2019-02-17T13:50:30.204Z,20.20
2019-02-17T13:53:00.312Z,20.20
2019-02-17T13:55:31.468Z,20.20
2019-02-17T13:58:02.497Z,20.20
2019-02-17T14:00:32.648Z,20.20
2019-02-17T14:03:04.520Z,20.10
2019-02-17T14:05:34.755Z,20.10
2019-02-17T14:08:07.648Z,20.10
2019-02-17T14:10:37.585Z,20.10
2019-02-17T14:13:07.784Z,20.10
2019-02-17T14:15:37.704Z,20.10
2019-02-17T14:18:07.809Z,20.10
2019-02-17T14:20:37.997Z,20.20
2019-02-17T14:23:08.103Z,20.20
2019-02-17T14:25:39.215Z,20.30
2019-02-17T14:28:09.318Z,20.30
2019-02-17T14:30:39.651Z,20.20
2019-02-17T14:33:09.653Z,20.20
2019-02-17T14:35:39.743Z,20.20
2019-02-17T14:38:09.919Z,20.20
2019-02-17T14:40:40.227Z,20.20
2019-02-17T14:43:10.512Z,20.10
2019-02-17T14:45:40.640Z,20.10
2019-02-17T14:48:11.416Z,20.20
2019-02-17T14:50:41.699Z,20.20
2019-02-17T14:53:11.817Z,20.10
2019-02-17T14:55:42.079Z,20.30
2019-02-17T14:58:12.299Z,20.30
2019-02-17T15:00:42.513Z,20.30
2019-02-17T15:03:12.901Z,20.30
2019-02-17T15:05:43.195Z,20.30
2019-02-17T15:08:13.632Z,20.30
2019-02-17T15:10:43.953Z,20.20
2019-02-17T15:13:14.733Z,20.20
2019-02-17T15:15:48.284Z,20.30
2019-02-17T15:18:19.473Z,20.20
2019-02-17T15:20:49.409Z,20.20
2019-02-17T15:23:20.564Z,20.30
2019-02-17T15:25:50.568Z,20.30
2019-02-17T15:28:20.727Z,20.30
2019-02-17T15:30:50.838Z,20.30
2019-02-17T15:33:21.074Z,20.30
2019-02-17T15:35:53.981Z,20.30
2019-02-17T15:38:24.296Z,20.30
2019-02-17T15:40:54.310Z,20.40
2019-02-17T15:43:24.439Z,20.40
2019-02-17T15:45:54.876Z,20.40
2019-02-17T15:48:24.981Z,20.40
2019-02-17T15:50:55.013Z,20.30
2019-02-17T15:53:25.111Z,20.30
2019-02-17T15:55:56.796Z,20.20
2019-02-17T15:58:27.195Z,20.10
2019-02-17T16:00:57.641Z,20.10
2019-02-17T16:03:28.198Z,20.00
2019-02-17T16:05:58.279Z,20.00
2019-02-17T16:08:28.251Z,20.00
2019-02-17T16:10:58.771Z,20.00
2019-02-17T16:13:29.243Z,19.90
2019-02-17T16:15:59.360Z,20.00
2019-02-17T16:18:29.536Z,20.00
2019-02-17T16:20:59.656Z,20.00
2019-02-17T16:23:29.785Z,20.10
2019-02-17T16:25:59.772Z,20.10
2019-02-17T16:28:29.908Z,20.10
2019-02-17T16:31:00.020Z,20.10
2019-02-17T16:33:30.010Z,20.10
2019-02-17T16:36:00.219Z,20.00
2019-02-17T16:38:30.410Z,20.00
2019-02-17T16:41:00.680Z,20.00
2019-02-17T16:43:30.961Z,19.90
2019-02-17T16:46:01.202Z,19.80
2019-02-17T16:48:31.448Z,19.90
2019-02-17T16:51:01.688Z,19.90
2019-02-17T16:53:31.943Z,19.80
2019-02-17T16:56:02.128Z,19.80
2019-02-17T16:58:32.691Z,19.80
2019-02-17T17:01:02.786Z,19.80
2019-02-17T17:03:32.864Z,19.80
2019-02-17T17:06:03.288Z,19.70
2019-02-17T17:08:33.939Z,19.70
2019-02-17T17:11:04.176Z,19.70
2019-02-17T17:13:34.571Z,19.60
2019-02-17T17:16:04.859Z,19.60
2019-02-17T17:18:35.197Z,19.60
2019-02-17T17:21:05.321Z,19.50
2019-02-17T17:23:35.667Z,19.40
2019-02-17T17:26:05.718Z,19.40
2019-02-17T17:28:35.813Z,19.30
2019-02-17T17:31:05.796Z,19.30
2019-02-17T17:33:35.851Z,19.20
2019-02-17T17:36:06.073Z,19.10
2019-02-17T17:38:36.091Z,19.20
2019-02-17T17:41:06.247Z,19.10
2019-02-17T17:43:36.514Z,19.10
2019-02-17T17:46:06.796Z,19.00
2019-02-17T17:48:38.089Z,19.10
2019-02-17T17:51:08.203Z,19.10
2019-02-17T17:53:38.665Z,19.10
2019-02-17T17:56:08.600Z,19.20
2019-02-17T17:58:38.795Z,19.20
2019-02-17T18:01:09.279Z,19.20
2019-02-17T18:03:39.400Z,19.10
2019-02-17T18:06:09.605Z,19.10
2019-02-17T18:08:40.353Z,19.00
2019-02-17T18:11:10.567Z,19.00
2019-02-17T18:13:40.635Z,19.00
2019-02-17T18:16:10.783Z,19.00
2019-02-17T18:18:40.975Z,18.90
2019-02-17T18:21:11.864Z,18.90
2019-02-17T18:23:43.372Z,18.80
2019-02-17T18:26:13.520Z,18.80
2019-02-17T18:28:43.900Z,18.80
2019-02-17T18:31:14.145Z,18.80
2019-02-17T18:33:44.768Z,18.90
2019-02-17T18:36:15.049Z,18.90
2019-02-17T18:38:45.508Z,18.90
2019-02-17T18:41:16.049Z,18.90
2019-02-17T18:43:46.214Z,18.90
2019-02-17T18:46:16.350Z,19.10
2019-02-17T18:48:46.528Z,19.00
2019-02-17T18:51:16.592Z,18.90
2019-02-17T18:53:46.668Z,18.90
2019-02-17T18:56:19.796Z,18.90
2019-02-17T18:58:49.944Z,19.00
2019-02-17T19:01:20.303Z,18.90
2019-02-17T19:03:59.446Z,18.90
2019-02-17T19:06:30.168Z,18.90
2019-02-17T19:09:00.176Z,18.90
2019-02-17T19:11:30.437Z,18.90
2019-02-17T19:14:03.244Z,18.90
2019-02-17T19:16:33.224Z,19.00
2019-02-17T19:19:03.272Z,18.90
2019-02-17T19:21:33.633Z,18.90
2019-02-17T19:24:03.664Z,18.90
2019-02-17T19:26:33.777Z,18.90
2019-02-17T19:29:03.946Z,18.80
2019-02-17T19:31:34.087Z,18.80
2019-02-17T19:34:04.430Z,18.80
2019-02-17T19:36:34.923Z,18.80
2019-02-17T19:39:06.444Z,18.90
2019-02-17T19:41:36.509Z,18.90
2019-02-17T19:44:06.690Z,18.90
2019-02-17T19:46:36.740Z,19.00
2019-02-17T19:49:06.844Z,19.00
2019-02-17T19:51:37.078Z,19.00
2019-02-17T19:54:07.304Z,18.90
2019-02-17T19:56:39.670Z,18.90
2019-02-17T19:59:09.156Z,18.80
2019-02-17T20:01:39.247Z,18.70
2019-02-17T20:04:20.656Z,18.80
2019-02-17T20:06:50.671Z,18.80
2019-02-17T20:09:20.764Z,18.60
2019-02-17T20:11:52.349Z,18.60
2019-02-17T20:14:23.668Z,18.50
2019-02-17T20:16:53.800Z,18.40
2019-02-17T20:19:25.642Z,18.40
2019-02-17T20:21:55.903Z,18.30
2019-02-17T20:24:25.938Z,18.30
2019-02-17T20:26:56.003Z,18.40
2019-02-17T20:29:26.026Z,18.40
2019-02-17T20:31:56.066Z,18.30
2019-02-17T20:34:26.151Z,18.30
2019-02-17T20:36:56.351Z,18.30
2019-02-17T20:39:26.395Z,18.30
2019-02-17T20:41:56.615Z,18.20
2019-02-17T20:44:26.613Z,18.20
2019-02-17T20:46:56.708Z,18.20
2019-02-17T20:49:27.463Z,18.30
2019-02-17T20:51:57.758Z,18.20
2019-02-17T20:54:28.498Z,18.20
2019-02-17T20:56:59.301Z,18.10
2019-02-17T20:59:29.616Z,18.10
2019-02-17T21:02:00.499Z,18.10
2019-02-17T21:04:31.437Z,18.00
2019-02-17T21:07:01.522Z,18.10
2019-02-17T21:09:32.329Z,18.10
2019-02-17T21:12:03.084Z,18.20
2019-02-17T21:14:33.786Z,18.20
2019-02-17T21:17:04.933Z,18.30
2019-02-17T21:19:35.452Z,18.30
2019-02-17T21:22:06.779Z,18.30
2019-02-17T21:24:37.602Z,18.20
2019-02-17T21:27:08.175Z,18.20
2019-02-17T21:29:39.099Z,18.20
2019-02-17T21:32:09.845Z,18.20
2019-02-17T21:34:40.624Z,18.20
2019-02-17T21:37:10.871Z,18.20
2019-02-17T21:39:41.151Z,18.20
2019-02-17T21:42:11.331Z,18.20
2019-02-17T21:44:41.440Z,18.20
2019-02-17T21:47:11.576Z,18.20
2019-02-17T21:49:41.753Z,18.20
2019-02-17T21:52:11.832Z,18.20
2019-02-17T21:54:42.007Z,18.20
2019-02-17T21:57:11.995Z,18.20
2019-02-17T21:59:42.318Z,18.20
2019-02-17T22:02:13.360Z,18.20
2019-02-17T22:04:43.414Z,18.20
2019-02-17T22:07:13.628Z,18.20
2019-02-17T22:09:43.696Z,18.30
2019-02-17T22:12:13.946Z,18.30
2019-02-17T22:14:45.078Z,18.30
2019-02-17T22:17:15.209Z,18.20
2019-02-17T22:19:45.470Z,18.20
2019-02-17T22:22:15.621Z,18.20
2019-02-17T22:24:45.771Z,18.20
2019-02-17T22:27:15.895Z,18.10
2019-02-17T22:29:46.020Z,18.10
2019-02-17T22:32:16.053Z,18.10
2019-02-17T22:34:46.040Z,18.10
2019-02-17T22:37:16.103Z,18.10
2019-02-17T22:39:46.100Z,18.00
2019-02-17T22:42:16.171Z,18.10
2019-02-17T22:44:46.186Z,18.10
2019-02-17T22:47:16.183Z,18.00
2019-02-17T22:49:46.319Z,18.00
2019-02-17T22:52:16.629Z,18.00
2019-02-17T22:54:46.752Z,17.90
2019-02-17T22:57:16.846Z,17.90
2019-02-17T22:59:46.815Z,17.90
2019-02-17T23:02:16.921Z,17.90
2019-02-17T23:04:47.157Z,17.80
2019-02-17T23:07:17.397Z,17.80
2019-02-17T23:09:47.574Z,17.80
2019-02-17T23:12:17.743Z,17.70
2019-02-17T23:14:47.660Z,17.80
2019-02-17T23:17:17.758Z,17.70
2019-02-17T23:19:47.847Z,17.70
2019-02-17T23:22:17.875Z,17.70
2019-02-17T23:24:48.504Z,17.70
2019-02-17T23:27:18.634Z,17.70
2019-02-17T23:29:48.855Z,17.70
2019-02-17T23:32:18.967Z,17.70
2019-02-17T23:34:48.936Z,17.70
2019-02-17T23:37:19.012Z,17.60
2019-02-17T23:39:49.098Z,17.60
2019-02-17T23:42:19.208Z,17.50
2019-02-17T23:44:51.007Z,17.60
2019-02-17T23:47:22.884Z,17.50
2019-02-17T23:49:53.123Z,17.50
2019-02-17T23:52:23.244Z,17.50
2019-02-17T23:54:53.468Z,17.50
2019-02-17T23:57:23.714Z,17.50
2019-02-17T23:59:53.882Z,17.50
